Time;durP1;ratioP1;P1;durP2;ratioP2;P2;SDS_P1;SDS_P2;PMS_P1;PMS_P2;Temp;Humidity;BMP_temperature;BMP_pressure;BME280_temperature;BME280_humidity;BME280_pressure;Samples;Min_cycle;Max_cycle;Signal;HPM_P1;HPM_P2
2020/12/02 00:00:30;;;;;;;;;50.00;40.00;;;;;-1.12;75.84;102109.81;3726611;37;21126;-61
2020/12/02 00:03:32;;;;;;;;;45.50;35.25;;;;;-1.12;75.99;102115.13;3725737;37;21144;-61
2020/12/02 00:06:04;;;;;;;;;42.25;36.25;;;;;-1.14;75.72;102112.53;3725370;37;21165;-61
2020/12/02 00:08:50;;;;;;;;;42.25;36.25;;;;;-1.10;76.02;102110.59;3726644;38;21135;-61
2020/12/02 00:11:17;;;;;;;;;40.50;35.00;;;;;-1.12;76.11;102112.47;3725830;37;21143;-60
2020/12/02 00:13:48;;;;;;;;;47.00;33.50;;;;;-1.07;76.18;102110.47;3725325;38;21099;-61
2020/12/02 00:16:25;;;;;;;;;35.00;26.50;;;;;-1.11;75.87;102117.72;3725324;37;21124;-62
2020/12/02 00:18:53;;;;;;;;;45.25;33.50;;;;;-1.08;75.90;102116.72;3725414;38;21062;-62
2020/12/02 00:21:26;;;;;;;;;42.00;33.75;;;;;-1.11;76.22;102109.75;3725380;37;21110;-63
2020/12/02 00:23:54;;;;;;;;;34.00;29.00;;;;;-1.05;76.01;102120.09;3725373;37;21122;-62
2020/12/02 00:26:21;;;;;;;;;51.75;41.50;;;;;-1.04;75.98;102121.78;3725430;37;21096;-62
2020/12/02 00:28:49;;;;;;;;;42.50;36.50;;;;;-1.05;75.87;102113.91;3725525;37;21085;-62
2020/12/02 00:31:18;;;;;;;;;40.00;30.00;;;;;-1.03;75.94;102114.66;3725111;37;21063;-61
2020/12/02 00:33:46;;;;;;;;;45.75;38.00;;;;;-1.02;76.13;102113.75;3725241;37;21102;-60
2020/12/02 00:36:14;;;;;;;;;36.00;33.50;;;;;-1.09;75.99;102110.53;3724912;38;21099;-61
2020/12/02 00:46:25;;;;;;;;;44.25;35.75;;;;;-1.12;76.17;102112.47;3725719;37;20369;-62
2020/12/02 00:48:53;;;;;;;;;44.50;37.50;;;;;-1.15;76.28;102116.12;3725787;37;20426;-60
2020/12/02 00:51:20;;;;;;;;;47.25;39.25;;;;;-1.20;76.19;102119.91;3725682;38;20404;-61
2020/12/02 00:53:47;;;;;;;;;52.00;36.75;;;;;-1.19;76.56;102111.87;3725753;37;20402;-62
2020/12/02 00:56:16;;;;;;;;;46.25;33.25;;;;;-1.18;76.50;102112.75;3725957;37;20397;-61
2020/12/02 00:59:29;;;;;;;;;49.50;35.25;;;;;-1.14;76.62;102107.22;3725954;37;20396;-62
2020/12/02 01:02:10;;;;;;;;;41.00;29.25;;;;;-1.06;76.38;102109.53;3725786;37;20368;-60
2020/12/02 01:04:38;;;;;;;;;40.75;31.00;;;;;-1.07;76.29;102119.28;3725937;38;20379;-61
2020/12/02 01:07:05;;;;;;;;;45.25;32.75;;;;;-1.06;76.24;102121.03;3725941;37;20366;-61
2020/12/02 01:09:31;;;;;;;;;40.25;33.50;;;;;-1.15;75.90;102112.59;3725752;38;20357;-60
2020/12/02 01:12:01;;;;;;;;;37.75;25.25;;;;;-1.14;76.00;102106.38;3725599;37;20364;-59
2020/12/02 01:14:29;;;;;;;;;33.50;29.75;;;;;-1.09;76.06;102107.00;3725673;37;20664;-59
2020/12/02 01:17:01;;;;;;;;;32.50;28.75;;;;;-1.04;75.87;102107.66;3725328;38;20657;-60
2020/12/02 01:19:34;;;;;;;;;42.25;29.25;;;;;-0.99;76.07;102108.28;3725444;38;20641;-59
2020/12/02 01:22:30;;;;;;;;;36.75;33.25;;;;;-1.08;76.08;102098.09;3725607;37;20658;-59
2020/12/02 01:25:18;;;;;;;;;39.75;33.25;;;;;-1.04;76.15;102102.34;3725416;37;20622;-59
2020/12/02 01:28:01;;;;;;;;;41.75;33.00;;;;;-1.08;75.86;102098.97;3725791;38;20631;-59
2020/12/02 01:30:31;;;;;;;;;45.25;37.25;;;;;-1.11;76.20;102104.44;3725636;38;20631;-58
2020/12/02 01:32:59;;;;;;;;;36.00;27.00;;;;;-1.19;76.12;102093.28;3725576;38;20959;-59
2020/12/02 01:35:28;;;;;;;;;34.25;26.50;;;;;-1.12;75.84;102100.03;3725813;37;20601;-59
2020/12/02 01:38:04;;;;;;;;;40.25;33.25;;;;;-1.11;75.99;102091.16;3725056;37;20625;-60
2020/12/02 01:40:33;;;;;;;;;38.75;28.25;;;;;-1.12;76.20;102100.03;3725537;37;20609;-61
2020/12/02 01:43:09;;;;;;;;;40.75;33.50;;;;;-1.22;76.12;102093.44;3725667;37;20606;-60
2020/12/02 01:45:45;;;;;;;;;39.75;29.50;;;;;-1.13;76.28;102100.13;3725445;37;20596;-59
2020/12/02 01:48:58;;;;;;;;;34.00;29.25;;;;;-1.10;76.21;102092.00;3725715;38;20606;-61
2020/12/02 01:52:04;;;;;;;;;45.00;40.75;;;;;-1.11;76.10;102099.13;3725613;38;20634;-61
2020/12/02 01:54:38;;;;;;;;;41.00;35.25;;;;;-1.14;76.02;102096.59;3725815;37;20605;-61
2020/12/02 01:57:23;;;;;;;;;39.50;31.75;;;;;-1.15;76.06;102094.00;3725813;37;20588;-61
2020/12/02 02:00:05;;;;;;;;;42.75;33.00;;;;;-1.09;76.20;102093.72;3725719;37;20595;-60
2020/12/02 02:02:58;;;;;;;;;34.00;28.00;;;;;-1.08;76.45;102096.31;3725577;37;20607;-61
2020/12/02 02:05:58;;;;;;;;;39.50;33.25;;;;;-1.05;76.29;102092.66;3725767;38;20619;-59
2020/12/02 02:08:31;;;;;;;;;37.00;32.00;;;;;-1.07;76.00;102098.03;3725725;38;20572;-61
2020/12/02 02:11:01;;;;;;;;;46.25;35.00;;;;;-1.03;76.41;102088.09;3725612;38;20586;-60
2020/12/02 02:13:54;;;;;;;;;40.50;31.50;;;;;-1.02;75.97;102095.13;3725592;37;20562;-59
2020/12/02 02:16:32;;;;;;;;;50.25;32.50;;;;;-1.05;76.42;102098.84;3725748;37;20609;-61
2020/12/02 02:19:01;;;;;;;;;22.00;21.75;;;;;-1.06;76.31;102089.12;3725673;37;20652;-60
2020/12/02 02:21:35;;;;;;;;;40.25;34.75;;;;;-1.12;76.21;102084.09;3725601;38;20627;-60
2020/12/02 02:24:05;;;;;;;;;33.75;28.00;;;;;-1.11;76.30;102091.16;3725703;38;20635;-61
2020/12/02 02:26:41;;;;;;;;;59.25;45.75;;;;;-1.09;76.36;102083.97;3725681;38;20605;-60
2020/12/02 02:29:38;;;;;;;;;64.25;45.50;;;;;-1.16;76.53;102061.28;3725703;37;20625;-60
2020/12/02 02:32:13;;;;;;;;;60.75;43.25;;;;;-1.04;76.38;102078.44;3725519;38;20608;-60
2020/12/02 02:34:46;;;;;;;;;44.00;32.25;;;;;-1.00;76.38;102080.84;3725739;38;20617;-61
2020/12/02 02:37:15;;;;;;;;;46.25;37.75;;;;;-1.01;76.17;102071.16;3725715;38;20583;-62
2020/12/02 02:39:42;;;;;;;;;47.25;36.25;;;;;-1.02;76.36;102080.06;3725704;38;20572;-62
2020/12/02 02:42:30;;;;;;;;;38.25;30.50;;;;;-1.12;76.47;102078.78;3725490;38;20613;-61
2020/12/02 02:44:59;;;;;;;;;44.00;35.00;;;;;-1.09;76.46;102076.00;3725572;37;20546;-60
2020/12/02 02:47:26;;;;;;;;;41.25;34.25;;;;;-1.03;76.69;102075.69;3725502;37;20600;-62
2020/12/02 02:49:53;;;;;;;;;37.75;29.50;;;;;-0.97;76.24;102077.19;3725657;37;20594;-61
2020/12/02 02:52:20;;;;;;;;;68.25;46.00;;;;;-0.91;76.43;102078.69;3725506;37;20512;-61
2020/12/02 02:54:46;;;;;;;;;40.25;31.75;;;;;-0.94;76.29;102077.03;3725724;38;20590;-60
2020/12/02 02:57:14;;;;;;;;;34.00;27.25;;;;;-0.95;76.47;102077.09;3725811;38;20571;-60
2020/12/02 02:59:42;;;;;;;;;34.00;29.25;;;;;-1.02;76.38;102084.50;3725738;37;20531;-60
2020/12/02 03:02:12;;;;;;;;;42.75;33.75;;;;;-1.06;76.40;102088.28;3725294;38;20558;-62
2020/12/02 03:04:40;;;;;;;;;37.25;28.75;;;;;-1.06;76.57;102083.81;3725829;37;20580;-59
2020/12/02 03:07:18;;;;;;;;;32.25;26.75;;;;;-1.01;76.81;102088.88;3725678;38;20566;-60
2020/12/02 03:09:44;;;;;;;;;38.50;30.50;;;;;-0.98;76.52;102085.22;3725663;37;20576;-60
2020/12/02 03:12:11;;;;;;;;;36.75;28.00;;;;;-0.97;76.34;102089.59;3725456;38;20528;-60
2020/12/02 03:14:43;;;;;;;;;33.00;29.50;;;;;-1.04;76.48;102091.72;3725576;38;20488;-60
2020/12/02 03:17:22;;;;;;;;;38.75;30.25;;;;;-1.06;76.55;102083.81;3725756;37;20547;-60
2020/12/02 03:20:20;;;;;;;;;50.75;35.50;;;;;-1.01;76.76;102087.09;3725682;38;20531;-61
2020/12/02 03:22:49;;;;;;;;;35.00;29.00;;;;;-0.99;76.62;102089.69;3725724;37;20523;-60
2020/12/02 03:25:24;;;;;;;;;37.25;31.50;;;;;-0.89;76.79;102088.31;3725290;38;20520;-61
2020/12/02 03:27:51;;;;;;;;;43.50;33.50;;;;;-0.89;76.57;102087.44;3725351;37;20485;-61
2020/12/02 03:30:19;;;;;;;;;38.00;32.75;;;;;-0.91;76.54;102087.53;3725725;38;20518;-60
2020/12/02 03:32:46;;;;;;;;;43.50;34.50;;;;;-0.95;76.54;102090.41;3725221;38;20515;-59
2020/12/02 03:35:12;;;;;;;;;45.00;26.75;;;;;-0.97;76.44;102086.94;3725860;38;20550;-59
2020/12/02 03:37:39;;;;;;;;;39.25;29.00;;;;;-0.95;76.84;102091.25;3725820;37;20516;-59
2020/12/02 03:40:10;;;;;;;;;34.50;32.25;;;;;-0.87;76.66;102098.88;3725648;38;20510;-61
2020/12/02 03:42:40;;;;;;;;;35.25;29.25;;;;;-0.84;76.59;102093.41;3725475;38;20444;-61
2020/12/02 03:45:12;;;;;;;;;34.00;28.00;;;;;-0.87;76.58;102099.72;3725743;37;20517;-61
2020/12/02 03:47:39;;;;;;;;;36.50;29.00;;;;;-0.83;76.71;102100.44;3725751;37;20490;-60
2020/12/02 03:50:09;;;;;;;;;42.25;32.25;;;;;-0.80;76.30;102100.31;3725324;37;20473;-61
2020/12/02 03:52:36;;;;;;;;;37.50;28.25;;;;;-0.76;76.37;102101.88;3725621;38;20488;-60
2020/12/02 03:55:04;;;;;;;;;31.00;29.50;;;;;-0.80;75.95;102098.50;3725758;38;20490;-60
2020/12/02 03:57:31;;;;;;;;;31.00;27.25;;;;;-0.83;76.11;102095.13;3725634;38;20437;-62
2020/12/02 04:00:00;;;;;;;;;35.25;28.50;;;;;-0.85;76.09;102102.31;3725540;37;20491;-59
2020/12/02 04:02:27;;;;;;;;;48.25;34.50;;;;;-0.84;75.97;102098.72;3725540;38;20427;-60
2020/12/02 04:04:54;;;;;;;;;31.00;28.50;;;;;-0.87;76.02;102096.22;3725555;37;20512;-61
2020/12/02 04:07:24;;;;;;;;;37.00;30.00;;;;;-0.83;76.39;102103.97;3725748;38;20489;-62
2020/12/02 04:09:52;;;;;;;;;39.00;33.00;;;;;-0.81;76.27;102114.53;3725692;38;20577;-62
2020/12/02 04:12:19;;;;;;;;;34.75;30.00;;;;;-0.78;76.38;102106.41;3725464;38;20470;-62
2020/12/02 04:14:49;;;;;;;;;37.25;30.50;;;;;-0.81;76.07;102101.25;3725612;37;20447;-61
2020/12/02 04:17:16;;;;;;;;;38.25;28.75;;;;;-0.75;76.25;102096.50;3725506;38;20412;-61
2020/12/02 04:19:43;;;;;;;;;35.00;30.25;;;;;-0.79;75.94;102089.59;3725795;38;20469;-61
2020/12/02 04:22:10;;;;;;;;;37.25;31.75;;;;;-0.71;76.02;102103.38;3725483;37;20407;-60
2020/12/02 04:24:38;;;;;;;;;34.25;33.00;;;;;-0.82;75.96;102088.88;3725722;38;20459;-59
2020/12/02 04:27:07;;;;;;;;;35.75;31.25;;;;;-0.73;76.00;102102.59;3725607;37;20466;-60
2020/12/02 04:29:33;;;;;;;;;45.00;34.75;;;;;-0.74;76.03;102098.22;3725696;38;20477;-60
2020/12/02 04:32:01;;;;;;;;;41.50;37.25;;;;;-0.71;76.12;102100.72;3725584;37;20479;-59
2020/12/02 04:34:29;;;;;;;;;37.25;31.75;;;;;-0.71;76.12;102103.38;3725656;37;20464;-60
2020/12/02 04:36:55;;;;;;;;;42.25;34.25;;;;;-0.76;75.99;102094.78;3725814;37;20447;-61
2020/12/02 04:39:22;;;;;;;;;49.00;38.00;;;;;-0.77;76.19;102100.16;3725804;37;20469;-60
2020/12/02 04:41:48;;;;;;;;;40.25;32.25;;;;;-0.76;76.21;102102.75;3725461;37;20461;-61
2020/12/02 04:44:16;;;;;;;;;37.25;32.75;;;;;-0.71;76.10;102106.06;3725632;38;20448;-61
2020/12/02 04:46:44;;;;;;;;;49.25;39.75;;;;;-0.65;76.29;102106.69;3725727;37;20366;-61
2020/12/02 04:49:22;;;;;;;;;46.50;35.50;;;;;-0.56;76.20;102109.78;3725660;38;20433;-61
2020/12/02 04:52:01;;;;;;;;;45.75;35.00;;;;;-0.52;75.98;102115.81;3725533;37;20381;-59
2020/12/02 04:54:28;;;;;;;;;22.50;18.25;;;;;-0.60;75.77;102117.97;3725732;38;20441;-62
2020/12/02 04:56:57;;;;;;;;;50.50;38.50;;;;;-0.67;75.98;102114.75;3725713;37;20405;-61
2020/12/02 04:59:41;;;;;;;;;42.75;33.50;;;;;-0.59;76.02;102115.25;3725287;38;20420;-61
2020/12/02 05:02:26;;;;;;;;;41.75;33.75;;;;;-0.67;75.98;102104.09;3725520;37;20435;-61
2020/12/02 05:04:58;;;;;;;;;35.75;33.50;;;;;-0.64;76.14;102109.28;3725501;38;20423;-59
2020/12/02 05:07:28;;;;;;;;;41.25;38.00;;;;;-0.58;76.13;102116.09;3725791;37;20396;-62
2020/12/02 05:10:15;;;;;;;;;48.50;38.00;;;;;-0.58;75.99;102110.78;3725321;38;20419;-62
2020/12/02 05:12:45;;;;;;;;;47.00;38.75;;;;;-0.52;75.81;102115.81;3725234;38;20390;-60
2020/12/02 05:15:28;;;;;;;;;39.50;36.25;;;;;-0.48;75.80;102128.84;3725311;37;20411;-61
2020/12/02 05:18:25;;;;;;;;;36.50;32.75;;;;;-0.49;75.97;102119.16;3725938;37;20389;-60
2020/12/02 05:21:05;;;;;;;;;48.25;39.25;;;;;-0.63;75.69;102111.00;3725397;38;20355;-60
2020/12/02 05:23:32;;;;;;;;;38.00;34.75;;;;;-0.56;75.75;102130.19;3725710;38;20375;-60
2020/12/02 05:26:16;;;;;;;;;37.25;27.25;;;;;-0.50;75.78;102128.06;3725075;37;20360;-59
2020/12/02 05:28:45;;;;;;;;;52.50;38.75;;;;;-0.49;75.93;102127.12;3725666;38;20373;-60
2020/12/02 05:31:23;;;;;;;;;35.50;31.00;;;;;-0.48;75.58;102125.31;3725642;37;20384;-59
2020/12/02 05:33:50;;;;;;;;;49.75;35.75;;;;;-0.49;75.57;102131.59;3725608;38;20350;-61
2020/12/02 05:36:40;;;;;;;;;40.25;33.25;;;;;-0.51;75.67;102126.34;3725590;37;20381;-62
2020/12/02 05:39:22;;;;;;;;;48.25;39.00;;;;;-0.53;75.66;102132.69;3725760;37;20374;-60
2020/12/02 05:41:55;;;;;;;;;51.00;41.50;;;;;-0.51;75.62;102133.47;3725492;37;20355;-60
2020/12/02 05:44:38;;;;;;;;;44.75;34.50;;;;;-0.52;76.08;102121.94;3725750;37;20341;-60
2020/12/02 05:47:17;;;;;;;;;37.00;30.75;;;;;-0.44;75.93;102125.09;3725399;37;20378;-59
2020/12/02 05:49:52;;;;;;;;;59.50;46.50;;;;;-0.31;75.99;102132.50;3725731;37;20343;-60
2020/12/02 05:52:34;;;;;;;;;44.25;38.50;;;;;-0.41;75.75;102111.66;3725469;38;20337;-60
2020/12/02 05:55:21;;;;;;;;;49.25;42.00;;;;;-0.28;75.47;102135.00;3725301;37;20355;-59
2020/12/02 05:58:33;;;;;;;;;46.25;36.50;;;;;-0.25;75.47;102137.50;3725648;38;20348;-59
2020/12/02 06:01:04;;;;;;;;;39.75;30.75;;;;;-0.26;75.44;102141.97;3725618;37;20311;-61
2020/12/02 06:03:34;;;;;;;;;42.00;33.75;;;;;-0.38;75.16;102143.44;3725583;38;20324;-62
2020/12/02 06:06:06;;;;;;;;;39.75;35.50;;;;;-0.34;75.69;102145.00;3725319;37;20320;-60
2020/12/02 06:08:43;;;;;;;;;42.75;39.00;;;;;-0.32;75.37;102142.28;3725901;37;20329;-61
2020/12/02 06:11:36;;;;;;;;;45.00;35.25;;;;;-0.34;75.71;102139.69;3726429;38;20327;-60
2020/12/02 06:14:29;;;;;;;;;55.25;40.75;;;;;-0.38;75.32;102145.22;3725746;38;20287;-58
2020/12/02 06:17:31;;;;;;;;;48.75;38.00;;;;;-0.41;75.37;102143.56;3726186;37;20302;-58
2020/12/02 06:20:02;;;;;;;;;53.75;41.75;;;;;-0.46;75.72;102142.06;3725896;38;20311;-60
2020/12/02 06:22:53;;;;;;;;;56.00;41.00;;;;;-0.37;75.72;102149.59;3725981;37;20313;-59
2020/12/02 06:25:58;;;;;;;;;48.00;38.00;;;;;-0.35;75.62;102148.59;3725639;38;20293;-60
2020/12/02 06:28:56;;;;;;;;;49.75;39.50;;;;;-0.27;75.73;102147.38;3725888;38;20333;-59
2020/12/02 06:31:33;;;;;;;;;47.50;39.75;;;;;-0.36;75.42;102148.69;3725895;37;20270;-60
2020/12/02 06:34:20;;;;;;;;;42.25;35.75;;;;;-0.31;75.54;102151.13;3725917;38;20279;-60
2020/12/02 06:37:08;;;;;;;;;37.25;33.50;;;;;-0.28;75.55;102151.81;3726144;38;20297;-60
2020/12/02 06:39:38;;;;;;;;;37.25;35.25;;;;;-0.26;75.66;102146.44;3726013;37;20213;-61
2020/12/02 06:42:36;;;;;;;;;42.00;37.00;;;;;-0.28;75.43;102145.63;3726303;38;20256;-60
2020/12/02 06:45:35;;;;;;;;;40.25;33.75;;;;;-0.21;75.69;102150.59;3726003;37;20264;-59
2020/12/02 06:48:24;;;;;;;;;44.75;34.50;;;;;0.15;77.21;102150.53;3725869;38;20250;-63
2020/12/02 06:50:58;;;;;;;;;41.75;38.25;;;;;0.68;74.22;102152.22;3726029;38;20260;-61
2020/12/02 06:53:26;;;;;;;;;36.50;31.25;;;;;0.42;73.84;102150.06;3725930;38;20268;-62
2020/12/02 06:55:59;;;;;;;;;38.25;34.00;;;;;0.23;73.68;102153.66;3726030;37;20214;-62
2020/12/02 06:58:27;;;;;;;;;48.75;32.75;;;;;0.40;74.91;102155.47;3725707;38;20197;-61
2020/12/02 07:01:04;;;;;;;;;41.75;35.50;;;;;0.36;73.15;102156.56;3725636;38;20258;-60
2020/12/02 07:03:50;;;;;;;;;42.00;35.50;;;;;0.18;73.62;102152.19;3725915;38;20249;-63
2020/12/02 07:06:25;;;;;;;;;30.75;24.75;;;;;0.32;74.64;102126.56;3725964;37;20236;-61
2020/12/02 07:09:16;;;;;;;;;42.00;35.75;;;;;0.71;73.04;102153.84;3725933;37;20230;-64
2020/12/02 07:12:05;;;;;;;;;53.00;39.00;;;;;0.44;73.04;102158.84;3725551;38;20201;-61
2020/12/02 07:14:38;;;;;;;;;40.50;31.25;;;;;0.35;73.48;102154.00;3725734;38;20247;-60
2020/12/02 07:17:09;;;;;;;;;33.75;26.50;;;;;0.69;73.07;102158.41;3725840;37;20169;-60
2020/12/02 07:19:39;;;;;;;;;49.50;41.00;;;;;0.77;72.95;102157.06;3725977;38;20223;-60
2020/12/02 07:22:26;;;;;;;;;46.25;37.25;;;;;0.68;72.53;102170.84;3725545;37;20227;-59
2020/12/02 07:24:59;;;;;;;;;74.25;55.75;;;;;0.45;72.19;102165.87;3717474;38;67332;-60
2020/12/02 07:27:26;;;;;;;;;61.50;47.25;;;;;0.44;72.63;102159.69;3725926;38;20210;-60
2020/12/02 07:30:00;;;;;;;;;53.25;41.25;;;;;0.48;72.84;102161.28;3725701;37;20200;-61
2020/12/02 07:32:27;;;;;;;;;48.75;39.25;;;;;0.57;74.06;102170.56;3725541;38;20210;-59
2020/12/02 07:35:06;;;;;;;;;55.75;40.75;;;;;0.65;72.98;102147.91;3725656;37;20214;-61
2020/12/02 07:37:32;;;;;;;;;45.75;38.50;;;;;0.46;72.68;102167.62;3725611;38;20202;-62
2020/12/02 07:40:04;;;;;;;;;54.25;43.00;;;;;0.27;73.20;102167.69;3725655;37;20177;-61
2020/12/02 07:42:39;;;;;;;;;36.75;34.25;;;;;0.16;73.25;102173.56;3725558;38;20173;-60
2020/12/02 07:45:41;;;;;;;;;35.50;34.50;;;;;0.03;73.62;102180.44;3725521;37;20163;-61
2020/12/02 07:48:20;;;;;;;;;54.75;37.25;;;;;0.09;74.11;102176.59;3725255;38;20253;-60
2020/12/02 07:50:57;;;;;;;;;42.00;36.75;;;;;0.08;73.74;102177.53;3724922;38;20175;-60
2020/12/02 07:53:50;;;;;;;;;37.00;31.75;;;;;-0.02;74.09;102177.16;3725392;38;20133;-59
2020/12/02 07:56:25;;;;;;;;;39.00;31.00;;;;;0.05;74.61;102175.03;3725792;38;20153;-59
2020/12/02 07:58:54;;;;;;;;;45.00;37.25;;;;;-0.03;73.98;102176.31;3725752;37;20132;-59
2020/12/02 08:01:59;;;;;;;;;52.25;40.75;;;;;-0.05;74.51;102174.66;3725737;37;20159;-61
2020/12/02 08:04:53;;;;;;;;;45.25;38.00;;;;;0.05;74.45;102214.94;3725893;38;20265;-61
2020/12/02 08:07:20;;;;;;;;;43.50;35.75;;;;;0.05;74.42;102175.87;3726019;37;20122;-61
2020/12/02 08:09:49;;;;;;;;;51.75;41.00;;;;;0.14;74.73;102172.78;3725873;37;20138;-61
2020/12/02 08:12:30;;;;;;;;;53.25;42.25;;;;;0.20;74.55;102167.12;3725591;37;20165;-61
2020/12/02 08:15:08;;;;;;;;;48.25;38.50;;;;;0.17;74.43;102161.97;3725640;37;20155;-59
2020/12/02 08:17:39;;;;;;;;;42.50;36.50;;;;;0.25;74.51;102162.44;3726262;37;20146;-61
2020/12/02 08:20:33;;;;;;;;;45.00;36.50;;;;;0.37;74.54;102165.41;3725463;38;20121;-60
2020/12/02 08:23:23;;;;;;;;;57.25;40.75;;;;;0.32;74.17;102176.31;3725861;38;20117;-60
2020/12/02 08:26:16;;;;;;;;;46.25;36.50;;;;;0.46;74.21;102172.94;3725925;37;20161;-62
2020/12/02 08:28:53;;;;;;;;;59.00;41.75;;;;;0.53;73.92;102163.66;3725881;37;20132;-61
2020/12/02 08:31:30;;;;;;;;;56.75;44.25;;;;;0.44;73.74;102164.16;3725650;37;21113;-59
2020/12/02 08:34:33;;;;;;;;;49.75;40.00;;;;;0.61;74.10;102158.78;3725867;38;20107;-60
2020/12/02 08:37:33;;;;;;;;;46.25;41.00;;;;;0.67;74.07;102158.47;3725904;38;20144;-59
2020/12/02 08:40:47;;;;;;;;;54.50;40.25;;;;;0.64;73.83;102148.84;3725764;37;20113;-59
2020/12/02 08:43:40;;;;;;;;;50.75;41.00;;;;;0.72;73.92;102144.91;3725553;37;20112;-60
2020/12/02 08:46:25;;;;;;;;;65.75;44.50;;;;;0.90;74.01;102160.78;3725702;37;20206;-60
2020/12/02 08:48:58;;;;;;;;;52.00;41.00;;;;;0.90;73.20;102162.59;3725830;37;21091;-61
2020/12/02 08:51:25;;;;;;;;;50.75;42.00;;;;;0.87;72.95;102158.28;3725453;38;20178;-61
2020/12/02 08:54:11;;;;;;;;;53.00;39.75;;;;;0.87;73.24;102149.44;3725948;38;21094;-59
2020/12/02 08:56:46;;;;;;;;;55.00;41.00;;;;;0.88;73.05;102148.50;3725567;37;21203;-60
2020/12/02 08:59:14;;;;;;;;;43.75;38.25;;;;;0.80;73.20;102138.25;3725714;37;21144;-60
2020/12/02 09:01:40;;;;;;;;;45.50;38.00;;;;;0.85;73.14;102138.84;3725726;37;21065;-60
2020/12/02 09:04:08;;;;;;;;;43.50;38.25;;;;;0.74;73.17;102119.03;3725820;38;21060;-59
2020/12/02 09:06:35;;;;;;;;;55.25;40.00;;;;;0.79;73.31;102135.66;3725374;38;21082;-61
2020/12/02 09:09:04;;;;;;;;;48.50;37.75;;;;;0.86;72.96;102127.25;3725798;37;21084;-60
2020/12/02 09:11:36;;;;;;;;;52.50;41.50;;;;;0.84;73.13;102117.63;3725475;38;21064;-59
2020/12/02 09:14:07;;;;;;;;;56.00;44.75;;;;;0.63;72.90;102083.19;3725689;37;21073;-61
2020/12/02 09:16:36;;;;;;;;;50.75;43.00;;;;;0.81;72.86;102129.28;3725342;37;21073;-60
2020/12/02 09:19:08;;;;;;;;;50.50;40.25;;;;;0.82;73.00;102128.34;3725716;38;21074;-60
2020/12/02 09:21:36;;;;;;;;;47.00;36.75;;;;;0.84;73.22;102125.59;3725693;37;21057;-66
2020/12/02 09:24:05;;;;;;;;;52.75;38.00;;;;;0.90;73.11;102127.94;3725546;37;21029;-59
2020/12/02 09:26:33;;;;;;;;;46.50;39.25;;;;;1.06;73.23;102125.28;3725676;37;21035;-58
2020/12/02 09:29:02;;;;;;;;;46.50;38.75;;;;;1.20;73.30;102114.72;3725860;37;21030;-62
2020/12/02 09:31:32;;;;;;;;;48.00;40.50;;;;;1.22;73.01;102112.81;3725661;37;21060;-62
2020/12/02 09:34:03;;;;;;;;;56.50;41.00;;;;;1.06;72.77;102114.63;3725564;37;21041;-61
2020/12/02 09:36:30;;;;;;;;;53.50;41.50;;;;;1.08;72.79;102113.59;3725743;38;21047;-60
2020/12/02 09:38:57;;;;;;;;;55.00;40.00;;;;;1.09;73.17;102093.97;3725545;37;21347;-60
2020/12/02 09:41:58;;;;;;;;;52.25;40.75;;;;;1.16;72.84;102107.84;3725565;37;21021;-60
2020/12/02 09:44:38;;;;;;;;;49.50;38.50;;;;;1.26;73.19;102114.38;3725732;37;21003;-60
2020/12/02 09:47:13;;;;;;;;;56.25;41.50;;;;;1.18;72.93;102105.94;3725798;38;21035;-60
2020/12/02 09:49:41;;;;;;;;;60.25;41.50;;;;;1.20;72.76;102104.06;3725383;37;21020;-62
2020/12/02 09:52:35;;;;;;;;;50.25;39.75;;;;;1.33;73.10;102103.28;3725393;38;21035;-60
2020/12/02 09:55:12;;;;;;;;;47.00;39.75;;;;;1.19;73.03;102105.84;3725631;37;21020;-62
2020/12/02 09:57:41;;;;;;;;;54.75;43.75;;;;;1.22;73.07;102088.81;3725238;38;21013;-60
2020/12/02 10:00:13;;;;;;;;;55.25;41.75;;;;;1.31;72.93;102091.84;3725771;38;21024;-62
2020/12/02 10:03:19;;;;;;;;;37.50;31.75;;;;;1.22;72.77;102094.16;3725752;37;20989;-60
2020/12/02 10:06:21;;;;;;;;;58.75;43.75;;;;;1.67;73.54;102098.66;3727311;37;20999;-61
2020/12/02 10:09:27;;;;;;;;;53.75;40.50;;;;;1.80;72.44;102089.00;3725923;38;20977;-61
2020/12/02 10:12:34;;;;;;;;;55.50;42.50;;;;;1.58;72.24;102105.38;3726021;38;20989;-60
2020/12/02 10:15:29;;;;;;;;;48.00;37.75;;;;;1.64;72.69;102094.37;3725710;37;20991;-61
2020/12/02 10:18:33;;;;;;;;;59.00;42.00;;;;;1.70;72.14;102085.16;3725800;37;21002;-62
2020/12/02 10:21:40;;;;;;;;;56.00;45.25;;;;;1.69;71.97;102083.44;3725715;37;20989;-64
2020/12/02 10:24:36;;;;;;;;;63.00;44.50;;;;;1.77;72.13;102086.50;3725359;38;20941;-63
2020/12/02 10:27:33;;;;;;;;;55.50;43.50;;;;;1.60;71.68;102063.47;3725733;37;20981;-61
2020/12/02 10:30:20;;;;;;;;;55.50;44.00;;;;;1.65;71.99;102072.06;3725843;37;21001;-62
2020/12/02 10:33:37;;;;;;;;;57.75;42.50;;;;;1.74;71.98;102067.16;3725900;37;20925;-61
2020/12/02 10:36:04;;;;;;;;;52.75;40.75;;;;;1.75;71.55;102043.03;3725795;37;20998;-60
2020/12/02 10:38:41;;;;;;;;;54.25;42.50;;;;;1.88;71.56;102062.72;3725917;38;20947;-61
2020/12/02 10:41:28;;;;;;;;;44.25;39.00;;;;;1.71;71.59;102056.66;3725688;37;20940;-62
2020/12/02 10:44:38;;;;;;;;;55.00;40.00;;;;;1.74;71.91;102061.81;3725798;38;20936;-62
2020/12/02 10:47:46;;;;;;;;;53.00;40.50;;;;;1.69;71.92;102061.22;3725853;37;20928;-62
2020/12/02 10:50:16;;;;;;;;;53.00;39.25;;;;;1.55;71.71;102051.38;3726007;37;20976;-60
2020/12/02 10:52:47;;;;;;;;;53.25;41.75;;;;;1.64;72.29;102046.34;3725779;37;20940;-62
2020/12/02 10:55:18;;;;;;;;;55.50;43.25;;;;;1.81;72.19;102052.50;3725918;38;21118;-63
2020/12/02 10:57:44;;;;;;;;;56.00;42.50;;;;;1.80;71.98;102053.44;3725531;37;20929;-61
2020/12/02 11:00:15;;;;;;;;;58.00;46.50;;;;;1.87;71.80;102049.47;3725790;38;20919;-63
2020/12/02 11:02:41;;;;;;;;;49.00;42.00;;;;;1.81;71.65;102056.03;3725742;37;20920;-62
2020/12/02 11:05:10;;;;;;;;;57.00;42.50;;;;;1.64;71.69;102043.66;3725807;37;20953;-63
2020/12/02 11:08:03;;;;;;;;;45.25;38.25;;;;;1.77;71.81;102056.28;3725707;38;20921;-64
2020/12/02 11:10:54;;;;;;;;;48.00;38.25;;;;;1.77;71.48;102046.47;3725866;38;20926;-62
2020/12/02 11:14:00;;;;;;;;;51.25;41.75;;;;;1.64;71.58;102045.47;3725959;37;20893;-63
2020/12/02 11:17:28;;;;;;;;;56.75;42.75;;;;;1.81;72.20;102048.00;3721066;37;64329;-64
2020/12/02 11:20:09;;;;;;;;;60.50;45.75;;;;;1.83;71.69;102040.78;3726124;38;20953;-64
2020/12/02 11:23:06;;;;;;;;;56.25;43.50;;;;;1.92;72.10;102026.87;3725777;38;20923;-63
2020/12/02 11:26:27;;;;;;;;;47.25;41.25;;;;;1.86;71.90;101981.88;3725819;37;20924;-64
2020/12/02 11:28:56;;;;;;;;;52.75;39.25;;;;;2.25;70.98;102039.13;3725085;38;20892;-63
2020/12/02 11:32:20;;;;;;;;;55.75;42.00;;;;;2.24;71.34;102032.91;3725700;37;20879;-61
2020/12/02 11:35:53;;;;;;;;;49.25;40.00;;;;;2.43;71.33;102034.47;3725880;38;20978;-63
2020/12/02 11:38:43;;;;;;;;;60.50;45.75;;;;;2.23;70.19;102036.53;3726077;37;20920;-62
2020/12/02 11:41:29;;;;;;;;;58.00;43.50;;;;;2.01;70.75;102038.81;3727319;38;20945;-63
2020/12/02 11:44:02;;;;;;;;;58.25;42.50;;;;;1.90;71.04;102036.78;3727050;37;20887;-63
2020/12/02 11:46:34;;;;;;;;;57.50;47.00;;;;;2.07;71.24;102024.25;3726364;38;20908;-62
2020/12/02 11:49:16;;;;;;;;;64.25;45.25;;;;;2.24;70.87;102027.56;3726924;37;20865;-65
2020/12/02 11:52:15;;;;;;;;;58.50;45.00;;;;;2.35;70.78;102023.37;3727027;38;21056;-64
2020/12/02 11:54:46;;;;;;;;;64.50;48.25;;;;;2.39;70.27;102020.44;3726690;37;20872;-63
2020/12/02 11:57:14;;;;;;;;;68.50;48.00;;;;;2.09;70.20;102016.97;3725912;37;20867;-64
2020/12/02 11:59:49;;;;;;;;;62.00;47.00;;;;;2.16;70.88;102010.31;3725524;37;20865;-63
2020/12/02 12:03:00;;;;;;;;;61.75;46.75;;;;;2.20;70.57;102011.81;3725930;37;20877;-64
2020/12/02 12:06:14;;;;;;;;;48.50;36.50;;;;;1.96;70.41;102009.72;3726282;38;20856;-67
2020/12/02 12:09:09;;;;;;;;;63.00;46.50;;;;;1.88;70.75;102003.13;3726633;37;20865;-69
2020/12/02 12:11:40;;;;;;;;;56.25;44.00;;;;;1.87;71.31;102001.41;3727120;37;20854;-67